createdAt,value
2022-11-27T00:01:03.127Z,1
2022-11-27T00:05:07.850Z,1
2022-11-27T00:10:07.855Z,1
2022-11-27T00:15:09.298Z,1
2022-11-27T00:20:08.019Z,1
2022-11-27T00:25:07.749Z,1
2022-11-27T00:30:08.467Z,1
2022-11-27T00:35:08.189Z,1
2022-11-27T00:40:07.920Z,1
2022-11-27T00:45:08.720Z,1
2022-11-27T00:50:08.446Z,1
2022-11-27T00:55:08.140Z,1
2022-11-27T01:00:07.838Z,1
2022-11-27T01:05:07.746Z,1
2022-11-27T01:10:08.459Z,1
2022-11-27T01:15:08.155Z,1
2022-11-27T01:20:07.921Z,1
2022-11-27T01:25:08.627Z,1
2022-11-27T01:30:08.341Z,1
2022-11-27T01:35:08.067Z,1
2022-11-27T01:40:07.811Z,1
2022-11-27T01:45:08.501Z,1
2022-11-27T01:50:08.194Z,1
2022-11-27T01:55:07.899Z,1
2022-11-27T02:00:08.589Z,1
2022-11-27T02:05:08.315Z,1
2022-11-27T02:10:08.031Z,1
2022-11-27T02:15:07.749Z,1
2022-11-27T02:20:08.484Z,1
2022-11-27T02:25:08.227Z,1
2022-11-27T02:30:07.949Z,1
2022-11-27T02:35:07.694Z,1
2022-11-27T02:40:08.447Z,1
2022-11-27T02:45:08.152Z,1
2022-11-27T02:50:07.860Z,1
2022-11-27T02:55:08.617Z,1
2022-11-27T03:00:08.338Z,1
2022-11-27T03:05:08.046Z,1
2022-11-27T03:10:07.735Z,1
2022-11-27T03:15:08.458Z,1
2022-11-27T03:20:08.193Z,1
2022-11-27T03:25:07.928Z,1
2022-11-27T03:30:08.671Z,1
2022-11-27T03:35:08.393Z,1
2022-11-27T03:40:08.114Z,1
2022-11-27T03:45:07.798Z,1
2022-11-27T03:50:12.561Z,1
2022-11-27T03:55:08.463Z,1
2022-11-27T04:00:08.190Z,1
2022-11-27T04:05:07.911Z,1
2022-11-27T04:10:08.634Z,1
2022-11-27T04:15:08.337Z,1
2022-11-27T04:20:08.056Z,1
2022-11-27T04:25:07.736Z,1
2022-11-27T04:30:08.443Z,1
2022-11-27T04:35:08.120Z,1
2022-11-27T04:40:07.847Z,1
2022-11-27T04:45:08.561Z,1
2022-11-27T04:50:08.297Z,1
2022-11-27T04:55:08.026Z,1
2022-11-27T05:00:07.753Z,1
2022-11-27T05:05:02.587Z,1
2022-11-27T05:10:02.856Z,1
2022-11-27T05:15:04.615Z,1
2022-11-27T05:20:02.709Z,1
2022-11-27T05:25:02.537Z,1
2022-11-27T05:30:02.493Z,1
2022-11-27T05:35:02.282Z,1
2022-11-27T05:40:02.129Z,1
2022-11-27T05:45:01.933Z,1
2022-11-27T05:50:01.792Z,1
2022-11-27T05:55:02.633Z,1
2022-11-27T06:00:02.529Z,1
2022-11-27T06:05:02.378Z,1
2022-11-27T06:10:02.215Z,1
2022-11-27T06:15:02.044Z,1
2022-11-27T06:20:01.876Z,1
2022-11-27T06:25:02.725Z,1
2022-11-27T06:30:02.552Z,2
2022-11-27T06:35:02.407Z,2
2022-11-27T06:40:02.312Z,6
2022-11-27T06:45:02.155Z,6
2022-11-27T06:50:01.965Z,16
2022-11-27T06:55:01.917Z,43
2022-11-27T07:00:02.863Z,43
2022-11-27T07:05:02.884Z,78
2022-11-27T07:10:02.877Z,78
2022-11-27T07:15:04.343Z,177
2022-11-27T07:20:02.576Z,177
2022-11-27T07:25:02.499Z,334
2022-11-27T07:30:02.429Z,334
2022-11-27T07:35:02.271Z,417
2022-11-27T07:40:03.216Z,417
2022-11-27T07:45:02.454Z,576
2022-11-27T07:50:02.257Z,576
2022-11-27T07:55:02.081Z,863
2022-11-27T08:00:01.961Z,1000
2022-11-27T08:05:01.780Z,1000
2022-11-27T08:10:02.630Z,2000
2022-11-27T08:15:02.438Z,2000
2022-11-27T08:20:02.253Z,2000
2022-11-27T08:25:02.110Z,1000
2022-11-27T08:30:01.928Z,1000
2022-11-27T08:35:02.880Z,1000
2022-11-27T08:40:02.743Z,1000
2022-11-27T08:45:02.637Z,1000
2022-11-27T08:50:02.484Z,1000
2022-11-27T08:55:02.313Z,1000
2022-11-27T09:00:02.140Z,2000
2022-11-27T09:05:01.946Z,2000
2022-11-27T09:10:01.756Z,2000
2022-11-27T09:15:02.613Z,2000
2022-11-27T09:20:02.804Z,2000
2022-11-27T09:25:02.570Z,2000
2022-11-27T09:30:02.409Z,1000
2022-11-27T09:35:02.420Z,1000
2022-11-27T09:40:02.366Z,1000
2022-11-27T09:45:02.317Z,2000
2022-11-27T09:50:02.226Z,2000
2022-11-27T09:55:12.070Z,2000
2022-11-27T10:00:02.012Z,2000
2022-11-27T10:05:14.887Z,2000
2022-11-27T10:10:02.175Z,2000
2022-11-27T10:15:02.013Z,2000
2022-11-27T10:20:01.857Z,2000
2022-11-27T10:25:02.675Z,2000
2022-11-27T10:30:02.475Z,2000
2022-11-27T10:35:12.395Z,2000
2022-11-27T10:40:02.364Z,3000
2022-11-27T10:45:02.187Z,3000
2022-11-27T10:50:02.103Z,3000
2022-11-27T10:55:02.137Z,3000
2022-11-27T11:00:02.250Z,3000
2022-11-27T11:05:24.481Z,3000
2022-11-27T11:10:02.471Z,3000
2022-11-27T11:15:02.340Z,3000
2022-11-27T11:20:02.271Z,3000
2022-11-27T11:25:02.121Z,3000
2022-11-27T11:30:02.006Z,3000
2022-11-27T11:35:11.878Z,3000
2022-11-27T11:40:02.940Z,3000
2022-11-27T11:45:01.780Z,3000
2022-11-27T11:50:02.690Z,3000
2022-11-27T11:55:02.606Z,3000
2022-11-27T12:00:02.454Z,3000
2022-11-27T12:05:02.406Z,3000
2022-11-27T12:10:02.258Z,3000
2022-11-27T12:15:12.424Z,3000
2022-11-27T12:20:02.311Z,3000
2022-11-27T12:25:02.274Z,3000
2022-11-27T12:30:02.269Z,2000
2022-11-27T12:35:02.393Z,3000
2022-11-27T12:40:02.409Z,3000
2022-11-27T12:45:12.472Z,3000
2022-11-27T12:50:02.489Z,2000
2022-11-27T12:55:02.346Z,3000
2022-11-27T13:00:02.241Z,3000
2022-11-27T13:05:02.133Z,2000
2022-11-27T13:10:01.991Z,1000
2022-11-27T13:15:01.842Z,1000
2022-11-27T13:20:02.619Z,1000
2022-11-27T13:25:02.462Z,1000
2022-11-27T13:30:08.046Z,1000
2022-11-27T13:35:01.939Z,1000
2022-11-27T13:40:02.769Z,1000
2022-11-27T13:45:02.615Z,1000
2022-11-27T13:50:02.466Z,1000
2022-11-27T13:55:02.521Z,1000
2022-11-27T14:00:02.539Z,1000
2022-11-27T14:05:02.419Z,1000
2022-11-27T14:10:02.264Z,1000
2022-11-27T14:15:02.073Z,1000
2022-11-27T14:20:01.873Z,967
2022-11-27T14:25:02.858Z,776
2022-11-27T14:30:02.701Z,741
2022-11-27T14:35:02.548Z,698
2022-11-27T14:40:02.609Z,721
2022-11-27T14:45:02.492Z,628
2022-11-27T14:50:02.469Z,585
2022-11-27T14:55:02.334Z,450
2022-11-27T15:00:02.241Z,408
2022-11-27T15:05:02.243Z,359
2022-11-27T15:10:02.273Z,272
2022-11-27T15:15:02.237Z,157
2022-11-27T15:20:02.259Z,98
2022-11-27T15:25:02.258Z,67
2022-11-27T15:30:02.288Z,57
2022-11-27T15:35:02.440Z,43
2022-11-27T15:40:12.291Z,35
2022-11-27T15:45:05.338Z,32
2022-11-27T15:50:02.305Z,23
2022-11-27T15:55:02.284Z,15
2022-11-27T16:00:02.086Z,8
2022-11-27T16:05:06.956Z,5
2022-11-27T16:10:01.909Z,5
2022-11-27T16:15:02.723Z,4
2022-11-27T16:20:02.658Z,4
2022-11-27T16:25:02.501Z,4
2022-11-27T16:30:02.388Z,4
2022-11-27T16:35:02.485Z,4
2022-11-27T16:40:02.345Z,4
2022-11-27T16:45:02.314Z,4
2022-11-27T16:50:02.307Z,4
2022-11-27T16:55:02.399Z,4
2022-11-27T17:00:02.379Z,4
2022-11-27T17:05:02.256Z,1
2022-11-27T17:10:02.359Z,1
2022-11-27T17:15:02.244Z,1
2022-11-27T17:20:02.202Z,1
2022-11-27T17:25:02.121Z,1
2022-11-27T17:30:01.943Z,1
2022-11-27T17:35:01.930Z,1
2022-11-27T17:40:03.066Z,1
2022-11-27T17:45:02.227Z,1
2022-11-27T17:50:02.423Z,1
2022-11-27T17:55:02.658Z,1
2022-11-27T18:00:02.653Z,1
2022-11-27T18:05:02.552Z,1
2022-11-27T18:10:02.480Z,1
2022-11-27T18:15:02.424Z,1
2022-11-27T18:20:02.312Z,1
2022-11-27T18:25:02.225Z,1
2022-11-27T18:30:02.133Z,1
2022-11-27T18:35:02.311Z,1
2022-11-27T18:40:02.230Z,1
2022-11-27T18:45:02.385Z,1
2022-11-27T18:50:02.309Z,1
2022-11-27T18:55:02.230Z,1
2022-11-27T19:00:02.129Z,1
2022-11-27T19:05:01.954Z,1
2022-11-27T19:10:01.868Z,1
2022-11-27T19:15:02.721Z,1
2022-11-27T19:20:02.627Z,1
2022-11-27T19:25:02.719Z,1
2022-11-27T19:30:02.501Z,1
2022-11-27T19:35:06.904Z,1
2022-11-27T19:40:02.380Z,1
2022-11-27T19:45:02.284Z,1
2022-11-27T19:50:02.292Z,1
2022-11-27T19:55:02.491Z,1
2022-11-27T20:00:02.412Z,1
2022-11-27T20:05:02.306Z,1
2022-11-27T20:10:02.339Z,1
2022-11-27T20:15:02.175Z,1
2022-11-27T20:20:02.230Z,1
2022-11-27T20:25:18.919Z,1
2022-11-27T20:30:02.651Z,1
2022-11-27T20:35:02.739Z,1
2022-11-27T20:40:02.746Z,1
2022-11-27T20:45:02.725Z,1
2022-11-27T20:50:02.775Z,1
2022-11-27T20:55:02.837Z,1
2022-11-27T21:00:02.950Z,1
2022-11-27T21:05:01.988Z,1
2022-11-27T21:10:01.895Z,1
2022-11-27T21:15:02.772Z,1
2022-11-27T21:20:03.001Z,1
2022-11-27T21:25:01.923Z,1
2022-11-27T21:30:02.974Z,1
2022-11-27T21:35:01.826Z,1
2022-11-27T21:40:02.733Z,1
2022-11-27T21:45:02.673Z,1
2022-11-27T21:50:02.525Z,1
2022-11-27T21:55:04.658Z,1
2022-11-27T22:00:02.395Z,1
2022-11-27T22:05:02.305Z,1
2022-11-27T22:10:02.355Z,1
2022-11-27T22:15:02.264Z,1
2022-11-27T22:20:02.248Z,1
2022-11-27T22:25:02.020Z,1
2022-11-27T22:30:01.961Z,1
2022-11-27T22:35:14.644Z,1
2022-11-27T22:40:08.373Z,1
2022-11-27T22:45:08.071Z,1
2022-11-27T22:50:08.128Z,1
2022-11-27T22:55:07.874Z,1
2022-11-27T23:00:08.686Z,1
2022-11-27T23:05:08.370Z,1
2022-11-27T23:10:08.105Z,1
2022-11-27T23:15:07.806Z,1
2022-11-27T23:20:08.513Z,1
2022-11-27T23:25:08.319Z,1
2022-11-27T23:30:08.035Z,1
2022-11-27T23:35:07.763Z,1
2022-11-27T23:40:08.539Z,1
2022-11-27T23:45:08.255Z,1
2022-11-27T23:50:07.969Z,1
2022-11-27T23:55:07.691Z,1
